Zaleski, Ohio
Current Conditions -  °F | °C
As of 2:35 PM on Thursday 30 Oct 2014 (Local Time) from KUNI Reporting Station
Overcast Overcast  
Wind Chill: 49°   Ceiling: 4300
Heat Index: 49°   Visibility: 10mi
Dew Point: 31°   Wind: 0mph
Humidity: 50%   Direction: NA
Pressure: 30.1"   Gusts: NA
Location:  39.28°N, 82.39°W
Report Text: KUNI 301835Z AUTO 00000KT 10SM OVC043 10/00 A3010 RMK AO2 T00971003
Loading
Personal Weather Stations






























Interactive Weather Map
Tropical Storm Tracking
New forecast layout! Learn more

10-Day Weather Forecast

Advertisements
Track Severe Weather on mobile